createdAt,value
2023-03-13T00:02:05.395Z,8.33
2023-03-13T00:04:35.200Z,8.35
2023-03-13T00:07:04.780Z,8.29
2023-03-13T00:09:34.358Z,8.29
2023-03-13T00:12:03.630Z,8.33
2023-03-13T00:14:33.287Z,8.33
2023-03-13T00:17:03.152Z,8.33
2023-03-13T00:19:32.502Z,8.35
2023-03-13T00:22:01.709Z,8.36
2023-03-13T00:24:31.205Z,8.34
2023-03-13T00:27:02.052Z,8.40
2023-03-13T00:29:32.852Z,8.39
2023-03-13T00:32:02.421Z,8.38
2023-03-13T00:34:31.811Z,8.45
2023-03-13T00:37:01.080Z,8.46
2023-03-13T00:39:30.451Z,8.47
2023-03-13T00:42:03.046Z,8.51
2023-03-13T00:44:32.679Z,8.53
2023-03-13T00:47:01.972Z,8.56
2023-03-13T00:49:31.242Z,8.53
2023-03-13T00:52:00.891Z,8.60
2023-03-13T00:54:30.238Z,8.64
2023-03-13T00:56:59.461Z,8.70
2023-03-13T00:59:29.071Z,8.69
2023-03-13T01:02:00.215Z,8.67
2023-03-13T01:04:29.632Z,8.74
2023-03-13T01:06:58.846Z,8.82
2023-03-13T01:09:28.421Z,8.84
2023-03-13T01:11:57.716Z,8.90
2023-03-13T01:14:27.040Z,8.85
2023-03-13T01:16:56.253Z,8.81
2023-03-13T01:19:26.272Z,8.85
2023-03-13T01:21:55.812Z,8.82
2023-03-13T01:24:26.885Z,8.95
2023-03-13T01:26:56.324Z,8.95
2023-03-13T01:29:25.545Z,9.00
2023-03-13T01:31:55.129Z,8.98
2023-03-13T01:34:24.335Z,9.00
2023-03-13T01:36:53.841Z,9.00
2023-03-13T01:39:23.397Z,9.04
2023-03-13T01:41:52.958Z,9.04
2023-03-13T01:44:27.321Z,9.12
2023-03-13T01:46:57.549Z,9.15
2023-03-13T01:49:36.191Z,9.15
2023-03-13T01:52:27.213Z,9.23
2023-03-13T01:55:06.765Z,9.25
2023-03-13T01:57:42.097Z,9.34
2023-03-13T02:00:17.011Z,9.27
2023-03-13T02:02:49.658Z,9.37
2023-03-13T02:05:21.182Z,9.41
2023-03-13T02:07:53.538Z,9.43
2023-03-13T02:10:23.016Z,9.54
2023-03-13T02:12:53.226Z,9.54
2023-03-13T02:15:25.567Z,9.64
2023-03-13T02:17:55.926Z,9.68
2023-03-13T02:20:25.977Z,9.72
2023-03-13T02:23:20.453Z,9.75
2023-03-13T02:25:54.273Z,9.76
2023-03-13T02:28:35.746Z,9.74
2023-03-13T02:31:07.602Z,9.83
2023-03-13T02:33:40.078Z,9.92
2023-03-13T02:36:10.364Z,9.96
2023-03-13T02:38:54.732Z,10.01
2023-03-13T02:41:26.097Z,10.11
2023-03-13T02:43:56.731Z,10.21
2023-03-13T02:46:26.252Z,10.24
2023-03-13T02:48:57.430Z,10.24
2023-03-13T02:51:43.149Z,10.23
2023-03-13T02:54:15.605Z,10.20
2023-03-13T02:56:49.062Z,10.24
2023-03-13T02:59:18.628Z,10.32
2023-03-13T03:01:49.900Z,10.35
2023-03-13T03:04:24.946Z,10.43
2023-03-13T03:06:56.177Z,10.47
2023-03-13T03:09:25.970Z,10.46
2023-03-13T03:11:57.040Z,10.49
2023-03-13T03:14:28.076Z,10.59
2023-03-13T03:16:57.878Z,10.64
2023-03-13T03:19:27.764Z,10.62
2023-03-13T03:21:57.456Z,10.59
2023-03-13T03:24:26.863Z,10.53
2023-03-13T03:26:56.420Z,10.64
2023-03-13T03:29:28.102Z,10.58
2023-03-13T03:31:58.351Z,10.55
2023-03-13T03:34:27.788Z,10.58
2023-03-13T03:36:58.248Z,10.67
2023-03-13T03:39:29.192Z,10.65
2023-03-13T03:41:58.779Z,10.68
2023-03-13T03:44:28.560Z,10.75
2023-03-13T03:46:59.656Z,10.75
2023-03-13T03:49:30.632Z,10.80
2023-03-13T03:52:00.081Z,10.80
2023-03-13T03:54:31.115Z,10.86
2023-03-13T03:57:00.844Z,10.92
2023-03-13T03:59:30.116Z,10.96
2023-03-13T04:02:01.294Z,10.94
2023-03-13T04:04:32.110Z,10.89
2023-03-13T04:07:03.063Z,10.97
2023-03-13T04:09:33.683Z,10.99
2023-03-13T04:12:05.023Z,11.04
2023-03-13T04:14:35.954Z,11.04
2023-03-13T04:17:07.242Z,11.08
2023-03-13T04:19:36.702Z,11.13
2023-03-13T04:22:06.408Z,11.27
2023-03-13T04:24:36.266Z,11.25
2023-03-13T04:27:06.733Z,11.28
2023-03-13T04:29:36.999Z,11.25
2023-03-13T04:32:24.067Z,11.39
2023-03-13T04:35:04.231Z,11.44
2023-03-13T04:37:45.359Z,11.42
2023-03-13T04:40:32.154Z,11.34
2023-03-13T04:43:05.969Z,11.43
2023-03-13T04:45:56.773Z,11.45
2023-03-13T04:48:30.647Z,11.46
2023-03-13T04:51:16.931Z,11.52
2023-03-13T04:54:04.714Z,11.60
2023-03-13T04:56:51.865Z,11.69
2023-03-13T04:59:22.829Z,11.74
2023-03-13T05:02:13.780Z,11.64
2023-03-13T05:04:52.292Z,11.64
2023-03-13T05:07:26.151Z,11.79
2023-03-13T05:10:00.237Z,11.84
2023-03-13T05:12:49.788Z,11.80
2023-03-13T05:15:20.742Z,11.76
2023-03-13T05:18:07.770Z,11.95
2023-03-13T05:20:44.636Z,11.89
2023-03-13T05:23:33.594Z,11.84
2023-03-13T05:26:08.033Z,11.88
2023-03-13T05:28:45.401Z,11.74
2023-03-13T05:31:34.995Z,11.79
2023-03-13T05:34:15.003Z,11.84
2023-03-13T05:36:52.148Z,11.85
2023-03-13T05:39:23.460Z,11.82
2023-03-13T05:41:57.133Z,11.93
2023-03-13T05:44:31.276Z,11.94
2023-03-13T05:47:11.015Z,11.82
2023-03-13T05:49:44.718Z,11.71
2023-03-13T05:52:15.626Z,11.71
2023-03-13T05:54:46.765Z,11.62
2023-03-13T05:57:17.749Z,11.74
2023-03-13T05:59:55.234Z,11.68
2023-03-13T06:02:44.825Z,11.75
2023-03-13T06:05:16.163Z,11.68
2023-03-13T06:07:46.674Z,11.68
2023-03-13T06:10:16.567Z,11.63
2023-03-13T06:12:46.595Z,11.62
2023-03-13T06:15:16.345Z,11.69
2023-03-13T06:17:53.342Z,11.74
2023-03-13T06:20:22.840Z,11.83
2023-03-13T06:22:52.259Z,11.84
2023-03-13T06:25:22.569Z,11.88
2023-03-13T06:27:52.005Z,11.94
2023-03-13T06:30:21.295Z,12.01
2023-03-13T06:32:50.716Z,11.90
2023-03-13T06:35:20.026Z,11.98
2023-03-13T06:37:49.665Z,11.91
2023-03-13T06:40:19.038Z,11.88
2023-03-13T06:42:48.250Z,11.76
2023-03-13T06:45:17.556Z,11.85
2023-03-13T06:47:46.802Z,11.92
2023-03-13T06:50:16.312Z,11.86
2023-03-13T06:52:46.071Z,11.89
2023-03-13T06:55:15.563Z,11.94
2023-03-13T06:57:44.890Z,11.86
2023-03-13T07:00:15.260Z,11.85
2023-03-13T07:02:44.823Z,11.82
2023-03-13T07:05:14.697Z,11.73
2023-03-13T07:07:45.169Z,11.77
2023-03-13T07:10:14.744Z,11.87
2023-03-13T07:12:44.528Z,11.82
2023-03-13T07:15:13.760Z,11.95
2023-03-13T07:17:43.140Z,11.89
2023-03-13T07:20:13.748Z,11.93
2023-03-13T07:22:44.028Z,12.00
2023-03-13T07:25:13.252Z,11.85
2023-03-13T07:27:42.554Z,11.87
2023-03-13T07:30:12.931Z,11.85
2023-03-13T07:32:42.225Z,11.83
2023-03-13T07:35:11.572Z,11.74
2023-03-13T07:37:40.878Z,11.83
2023-03-13T07:40:11.444Z,11.75
2023-03-13T07:42:44.193Z,11.72
2023-03-13T07:45:13.566Z,11.80
2023-03-13T07:47:42.997Z,11.82
2023-03-13T07:50:12.995Z,11.93
2023-03-13T07:52:42.210Z,11.99
2023-03-13T07:55:11.513Z,12.10
2023-03-13T07:57:40.854Z,12.16
2023-03-13T08:00:13.444Z,12.10
2023-03-13T08:02:42.904Z,12.09
2023-03-13T08:05:12.083Z,12.05
2023-03-13T08:07:43.566Z,12.05
2023-03-13T08:10:13.450Z,11.92
2023-03-13T08:12:42.680Z,11.83
2023-03-13T08:15:12.440Z,11.89
2023-03-13T08:17:41.667Z,11.97
2023-03-13T08:20:12.139Z,12.01
2023-03-13T08:22:41.367Z,12.19
2023-03-13T08:25:11.206Z,12.40
2023-03-13T08:27:40.690Z,12.51
2023-03-13T08:30:10.629Z,12.68
2023-03-13T08:32:40.398Z,12.78
2023-03-13T08:35:10.197Z,12.77
2023-03-13T08:37:39.686Z,12.83
2023-03-13T08:40:13.612Z,12.94
2023-03-13T08:42:42.876Z,13.10
2023-03-13T08:45:12.425Z,13.10
2023-03-13T08:47:41.787Z,13.12
2023-03-13T08:50:11.557Z,13.48
2023-03-13T08:52:40.798Z,13.63
2023-03-13T08:55:10.490Z,14.79
2023-03-13T08:57:39.970Z,15.38
2023-03-13T09:00:11.192Z,16.14
2023-03-13T09:02:40.481Z,16.33
2023-03-13T09:05:10.058Z,15.97
2023-03-13T09:07:39.855Z,15.25
2023-03-13T09:10:09.848Z,15.96
2023-03-13T09:12:39.127Z,15.83
2023-03-13T09:15:09.597Z,15.29
2023-03-13T09:17:38.886Z,15.06
2023-03-13T09:20:09.418Z,14.31
2023-03-13T09:22:38.653Z,14.32
2023-03-13T09:25:09.021Z,14.15
2023-03-13T09:27:38.240Z,14.04
2023-03-13T09:30:08.708Z,14.06
2023-03-13T09:32:38.080Z,14.14
2023-03-13T09:35:08.394Z,14.18
2023-03-13T09:37:37.604Z,14.04
2023-03-13T09:40:08.493Z,13.86
2023-03-13T09:42:43.450Z,13.90
2023-03-13T09:45:15.171Z,15.38
2023-03-13T09:47:53.007Z,15.96
2023-03-13T09:50:27.444Z,15.81
2023-03-13T09:53:02.420Z,15.40
2023-03-13T09:55:33.978Z,14.78
2023-03-13T09:58:06.387Z,14.59
2023-03-13T10:00:41.283Z,14.48
2023-03-13T10:03:13.742Z,14.53
2023-03-13T10:05:51.105Z,16.20
2023-03-13T10:08:23.643Z,16.67
2023-03-13T10:10:56.990Z,16.24
2023-03-13T10:14:02.719Z,15.24
2023-03-13T10:16:35.298Z,15.58
2023-03-13T10:19:05.555Z,16.36
2023-03-13T10:21:36.439Z,15.82
2023-03-13T10:24:08.928Z,15.25
2023-03-13T10:26:39.457Z,14.91
2023-03-13T10:29:20.834Z,15.90
2023-03-13T10:32:01.622Z,16.38
2023-03-13T10:34:57.117Z,16.57
2023-03-13T10:37:29.494Z,16.06
2023-03-13T10:40:25.540Z,16.15
2023-03-13T10:42:57.476Z,15.57
2023-03-13T10:45:27.148Z,15.76
2023-03-13T10:47:58.281Z,15.38
2023-03-13T10:50:29.884Z,15.51
2023-03-13T10:52:59.377Z,16.16
2023-03-13T10:55:28.807Z,15.96
2023-03-13T10:58:00.245Z,15.95
2023-03-13T11:00:39.906Z,15.29
2023-03-13T11:03:22.138Z,15.48
2023-03-13T11:05:59.764Z,15.88
2023-03-13T11:08:32.150Z,15.47
2023-03-13T11:11:06.706Z,15.08
2023-03-13T11:13:45.032Z,15.04
2023-03-13T11:16:23.485Z,15.35
2023-03-13T11:19:12.635Z,15.24
2023-03-13T11:21:57.106Z,15.05
2023-03-13T11:24:46.444Z,16.22
2023-03-13T11:27:28.017Z,16.99
2023-03-13T11:30:06.952Z,16.55
2023-03-13T11:32:56.537Z,17.14
2023-03-13T11:35:46.976Z,18.19
2023-03-13T11:38:28.710Z,18.25
2023-03-13T11:41:04.148Z,17.65
2023-03-13T11:43:42.634Z,18.01
2023-03-13T11:46:17.858Z,18.27
2023-03-13T11:49:02.114Z,18.96
2023-03-13T11:51:37.506Z,18.69
2023-03-13T11:54:40.255Z,17.76
2023-03-13T11:57:21.072Z,18.18
2023-03-13T11:59:56.137Z,18.11
2023-03-13T12:02:28.113Z,17.73
2023-03-13T12:05:03.397Z,18.25
2023-03-13T12:07:48.211Z,18.39
2023-03-13T12:10:26.401Z,18.39
2023-03-13T12:13:14.293Z,18.64
2023-03-13T12:15:45.667Z,18.13
2023-03-13T12:18:36.293Z,18.55
2023-03-13T12:21:24.387Z,18.55
2023-03-13T12:24:17.744Z,18.52
2023-03-13T12:26:50.169Z,18.93
2023-03-13T12:29:20.486Z,17.86
2023-03-13T12:32:14.080Z,18.82
2023-03-13T12:35:02.467Z,17.86
2023-03-13T12:37:39.824Z,17.74
2023-03-13T12:40:24.037Z,18.03
2023-03-13T12:43:05.456Z,18.60
2023-03-13T12:45:36.914Z,18.38
2023-03-13T12:48:09.627Z,18.24
2023-03-13T12:50:50.906Z,18.48
2023-03-13T12:53:38.748Z,18.62
2023-03-13T12:56:11.232Z,18.24
2023-03-13T12:58:56.948Z,17.84
2023-03-13T13:01:31.771Z,17.19
2023-03-13T13:04:22.530Z,16.69
2023-03-13T13:07:02.698Z,16.89
2023-03-13T13:09:39.246Z,16.66
2023-03-13T13:12:31.160Z,17.12
2023-03-13T13:15:04.223Z,17.51
2023-03-13T13:17:48.371Z,17.29
2023-03-13T13:20:38.589Z,17.26
2023-03-13T13:23:31.855Z,16.89
2023-03-13T13:26:30.156Z,16.75
2023-03-13T13:29:01.414Z,16.89
2023-03-13T13:31:51.791Z,16.86
2023-03-13T13:34:34.980Z,17.38
2023-03-13T13:37:25.588Z,17.13
2023-03-13T13:39:56.472Z,16.53
2023-03-13T13:42:38.790Z,16.40
2023-03-13T13:45:21.182Z,16.30
2023-03-13T13:47:51.948Z,16.20
2023-03-13T13:50:24.367Z,16.34
2023-03-13T13:52:54.287Z,16.50
2023-03-13T13:55:29.456Z,16.73
2023-03-13T13:58:13.469Z,16.58
2023-03-13T14:01:01.613Z,16.69
2023-03-13T14:03:33.252Z,16.63
2023-03-13T14:06:19.879Z,16.37
2023-03-13T14:08:51.149Z,16.57
2023-03-13T14:11:31.484Z,16.32
2023-03-13T14:14:11.348Z,16.81
2023-03-13T14:16:42.499Z,16.18
2023-03-13T14:19:31.037Z,16.49
2023-03-13T14:22:02.755Z,16.34
2023-03-13T14:24:32.041Z,16.45
2023-03-13T14:27:01.786Z,16.84
2023-03-13T14:29:31.091Z,16.93
2023-03-13T14:32:00.966Z,16.81
2023-03-13T14:34:32.719Z,17.13
2023-03-13T14:37:17.752Z,17.42
2023-03-13T14:39:37.677Z,16.98
2023-03-13T14:42:15.018Z,16.71
2023-03-13T14:44:46.717Z,16.88
2023-03-13T14:47:19.344Z,16.70
2023-03-13T14:49:48.933Z,17.26
2023-03-13T14:52:25.924Z,16.94
2023-03-13T14:54:58.239Z,16.41
2023-03-13T14:57:29.035Z,16.58
2023-03-13T15:00:17.783Z,16.86
2023-03-13T15:02:47.444Z,16.82
2023-03-13T15:05:35.170Z,16.46
2023-03-13T15:08:04.691Z,16.22
2023-03-13T15:10:37.685Z,15.93
2023-03-13T15:13:22.466Z,16.12
2023-03-13T15:15:53.743Z,16.34
2023-03-13T15:18:28.661Z,16.04
2023-03-13T15:21:01.040Z,15.97
2023-03-13T15:23:30.706Z,15.76
2023-03-13T15:26:00.214Z,15.83
2023-03-13T15:28:30.871Z,15.60
2023-03-13T15:31:00.357Z,15.87
2023-03-13T15:33:30.756Z,15.82
2023-03-13T15:36:00.362Z,15.77
2023-03-13T15:38:30.184Z,15.41
2023-03-13T15:40:59.416Z,15.15
2023-03-13T15:43:29.079Z,15.09
2023-03-13T15:45:58.928Z,14.77
2023-03-13T15:48:31.293Z,14.81
2023-03-13T15:51:04.320Z,14.60
2023-03-13T15:53:35.774Z,14.63
2023-03-13T15:56:08.627Z,14.53
2023-03-13T15:58:38.540Z,14.54
2023-03-13T16:01:10.023Z,14.46
2023-03-13T16:03:39.653Z,14.38
2023-03-13T16:06:21.234Z,14.27
2023-03-13T16:08:50.586Z,14.27
2023-03-13T16:11:20.197Z,14.20
2023-03-13T16:13:50.147Z,14.16
2023-03-13T16:16:29.522Z,14.12
2023-03-13T16:19:00.537Z,14.07
2023-03-13T16:21:33.106Z,14.05
2023-03-13T16:24:01.688Z,13.98
2023-03-13T16:26:32.445Z,13.97
2023-03-13T16:29:02.082Z,13.96
2023-03-13T16:31:33.284Z,13.96
2023-03-13T16:34:03.823Z,13.89
2023-03-13T16:36:33.621Z,13.83
2023-03-13T16:39:08.468Z,13.80
2023-03-13T16:41:38.148Z,13.80
2023-03-13T16:44:07.593Z,13.78
2023-03-13T16:46:46.006Z,13.78
2023-03-13T16:49:15.384Z,13.71
2023-03-13T16:51:44.892Z,13.65
2023-03-13T16:54:14.126Z,13.64
2023-03-13T16:56:44.799Z,13.57
2023-03-13T16:59:16.643Z,13.56
2023-03-13T17:01:47.278Z,13.52
2023-03-13T17:04:16.716Z,13.44
2023-03-13T17:06:47.065Z,13.38
2023-03-13T17:09:18.025Z,13.38
2023-03-13T17:11:47.753Z,13.32
2023-03-13T17:14:16.962Z,13.24
2023-03-13T17:16:46.915Z,13.19
2023-03-13T17:19:17.220Z,13.13
2023-03-13T17:21:46.559Z,12.97
2023-03-13T17:24:15.796Z,12.84
2023-03-13T17:26:45.290Z,12.82
2023-03-13T17:29:18.285Z,12.78
2023-03-13T17:31:47.581Z,12.72
2023-03-13T17:34:16.919Z,12.59
2023-03-13T17:36:47.568Z,12.52
2023-03-13T17:39:16.842Z,12.43
2023-03-13T17:41:46.151Z,12.37
2023-03-13T17:44:15.376Z,12.36
2023-03-13T17:46:47.865Z,12.33
2023-03-13T17:49:17.326Z,12.29
2023-03-13T17:51:48.506Z,12.20
2023-03-13T17:54:18.543Z,12.17
2023-03-13T17:56:48.361Z,12.09
2023-03-13T17:59:19.193Z,12.08
2023-03-13T18:01:48.649Z,12.07
2023-03-13T18:04:17.915Z,12.03
2023-03-13T18:06:50.368Z,12.00
2023-03-13T18:09:21.320Z,11.78
2023-03-13T18:11:51.375Z,11.86
2023-03-13T18:14:21.445Z,11.80
2023-03-13T18:16:52.234Z,11.75
2023-03-13T18:19:23.756Z,11.77
2023-03-13T18:21:55.064Z,11.71
2023-03-13T18:24:24.419Z,11.61
2023-03-13T18:26:53.779Z,11.57
2023-03-13T18:29:29.190Z,11.53
2023-03-13T18:32:00.827Z,11.53
2023-03-13T18:34:30.245Z,11.42
2023-03-13T18:37:01.528Z,11.46
2023-03-13T18:39:32.487Z,11.41
2023-03-13T18:42:02.049Z,11.34
2023-03-13T18:44:31.721Z,11.27
2023-03-13T18:47:00.980Z,11.18
2023-03-13T18:49:30.444Z,11.13
2023-03-13T18:51:59.722Z,11.09
2023-03-13T18:54:29.048Z,11.01
2023-03-13T18:56:58.609Z,10.98
2023-03-13T18:59:27.952Z,11.05
2023-03-13T19:01:57.381Z,11.03
2023-03-13T19:04:26.666Z,10.99
2023-03-13T19:06:56.433Z,10.94
2023-03-13T19:09:42.760Z,10.92
2023-03-13T19:11:56.887Z,10.86
2023-03-13T19:14:26.256Z,10.80
2023-03-13T19:16:57.924Z,10.80
2023-03-13T19:19:27.965Z,10.82
2023-03-13T19:21:58.756Z,10.72
2023-03-13T19:24:28.776Z,10.58
2023-03-13T19:27:01.120Z,10.56
2023-03-13T19:29:32.145Z,10.67
2023-03-13T19:32:03.119Z,10.60
2023-03-13T19:34:32.395Z,10.43
2023-03-13T19:37:01.627Z,10.31
2023-03-13T19:39:31.098Z,10.21
2023-03-13T19:42:00.403Z,10.14
2023-03-13T19:44:29.737Z,10.02
2023-03-13T19:47:00.511Z,10.07
2023-03-13T19:49:30.018Z,9.88
2023-03-13T19:52:00.229Z,9.83
2023-03-13T19:54:29.535Z,9.77
2023-03-13T19:56:58.894Z,9.66
2023-03-13T19:59:28.814Z,9.58
2023-03-13T20:01:59.692Z,9.66
2023-03-13T20:04:29.510Z,9.64
2023-03-13T20:06:59.009Z,9.58
2023-03-13T20:09:28.794Z,9.60
2023-03-13T20:11:58.025Z,9.56
2023-03-13T20:14:28.334Z,9.60
2023-03-13T20:16:57.973Z,9.73
2023-03-13T20:19:29.246Z,9.88
2023-03-13T20:22:04.414Z,9.88
2023-03-13T20:24:34.653Z,10.03
2023-03-13T20:27:04.157Z,10.07
2023-03-13T20:29:34.258Z,9.96
2023-03-13T20:32:05.313Z,9.76
2023-03-13T20:34:35.651Z,9.66
2023-03-13T20:37:05.244Z,9.72
2023-03-13T20:39:36.631Z,9.74
2023-03-13T20:42:07.845Z,9.85
2023-03-13T20:44:37.507Z,9.95
2023-03-13T20:47:06.697Z,9.99
2023-03-13T20:49:36.060Z,10.06
2023-03-13T20:52:05.549Z,10.07
2023-03-13T20:54:35.854Z,10.10
2023-03-13T20:57:05.368Z,10.15
2023-03-13T20:59:34.984Z,10.16
2023-03-13T21:02:04.570Z,10.15
2023-03-13T21:04:34.403Z,10.24
2023-03-13T21:07:04.753Z,10.30
2023-03-13T21:09:35.584Z,10.40
2023-03-13T21:12:05.826Z,10.55
2023-03-13T21:14:36.566Z,10.64
2023-03-13T21:17:05.903Z,10.63
2023-03-13T21:19:35.202Z,10.58
2023-03-13T21:22:04.597Z,10.65
2023-03-13T21:24:34.288Z,10.69
2023-03-13T21:27:03.804Z,10.67
2023-03-13T21:29:33.492Z,10.57
2023-03-13T21:32:02.932Z,10.73
2023-03-13T21:34:32.316Z,10.76
2023-03-13T21:37:01.620Z,10.77
2023-03-13T21:39:31.693Z,10.70
2023-03-13T21:42:02.338Z,10.69
2023-03-13T21:44:31.679Z,10.60
2023-03-13T21:47:01.259Z,10.57
2023-03-13T21:49:30.669Z,10.49
2023-03-13T21:51:59.924Z,10.38
2023-03-13T21:54:29.497Z,10.37
2023-03-13T21:56:59.264Z,10.32
2023-03-13T21:59:30.342Z,10.39
2023-03-13T22:01:59.910Z,10.35
2023-03-13T22:04:30.922Z,10.50
2023-03-13T22:07:08.609Z,10.64
2023-03-13T22:09:40.334Z,10.66
2023-03-13T22:12:17.272Z,10.60
2023-03-13T22:14:51.215Z,10.78
2023-03-13T22:17:26.940Z,10.89
2023-03-13T22:19:58.395Z,10.99
2023-03-13T22:22:29.435Z,11.06
2023-03-13T22:25:00.370Z,11.15
2023-03-13T22:27:35.620Z,11.21
2023-03-13T22:30:08.975Z,11.24
2023-03-13T22:32:53.338Z,11.27
2023-03-13T22:35:46.693Z,11.22
2023-03-13T22:38:15.964Z,11.27
2023-03-13T22:40:45.233Z,11.34
2023-03-13T22:43:15.642Z,11.35
2023-03-13T22:45:44.882Z,11.32
2023-03-13T22:48:14.116Z,11.26
2023-03-13T22:50:43.439Z,11.38
2023-03-13T22:53:13.206Z,11.49
2023-03-13T22:55:42.594Z,11.47
2023-03-13T22:58:12.064Z,11.48
2023-03-13T23:00:41.318Z,11.48
2023-03-13T23:03:10.547Z,11.51
2023-03-13T23:05:40.921Z,11.52
2023-03-13T23:08:10.493Z,11.47
2023-03-13T23:10:39.770Z,11.47
2023-03-13T23:13:09.198Z,11.39
2023-03-13T23:15:55.265Z,11.35
2023-03-13T23:18:11.474Z,11.24
2023-03-13T23:20:40.735Z,11.16
2023-03-13T23:23:10.337Z,11.11
2023-03-13T23:25:40.231Z,11.11
2023-03-13T23:28:09.471Z,10.96
2023-03-13T23:30:39.024Z,10.88
2023-03-13T23:33:08.681Z,10.71
2023-03-13T23:35:38.805Z,10.69
2023-03-13T23:38:08.256Z,10.61
2023-03-13T23:40:37.846Z,10.52
2023-03-13T23:43:07.099Z,10.50
2023-03-13T23:45:37.358Z,10.59
2023-03-13T23:48:06.962Z,10.70
2023-03-13T23:50:37.558Z,10.69
2023-03-13T23:53:07.155Z,10.70
2023-03-13T23:55:36.374Z,10.67
2023-03-13T23:58:05.913Z,10.56
